sensor_id;sensor_type;location;lat;lon;timestamp;pressure;altitude;pressure_sealevel;temperature;humidity
64551;BME280;50945;44.472;-123.352;2023-03-22T00:01:38;98978.03;;;15.42;56.33
64551;BME280;50945;44.472;-123.352;2023-03-22T00:04:06;98978.97;;;15.30;57.51
64551;BME280;50945;44.472;-123.352;2023-03-22T00:06:32;98976.94;;;15.26;57.40
64551;BME280;50945;44.472;-123.352;2023-03-22T00:08:58;98975.94;;;15.15;56.48
64551;BME280;50945;44.472;-123.352;2023-03-22T00:11:24;98972.94;;;14.99;57.67
64551;BME280;50945;44.472;-123.352;2023-03-22T00:13:51;98969.50;;;14.92;56.52
64551;BME280;50945;44.472;-123.352;2023-03-22T00:16:19;98968.53;;;14.87;55.93
64551;BME280;50945;44.472;-123.352;2023-03-22T00:18:45;98976.22;;;14.85;55.34
64551;BME280;50945;44.472;-123.352;2023-03-22T00:21:13;98965.22;;;14.85;55.58
64551;BME280;50945;44.472;-123.352;2023-03-22T00:23:40;98966.56;;;14.82;57.06
64551;BME280;50945;44.472;-123.352;2023-03-22T00:26:09;98961.28;;;14.80;57.13
64551;BME280;50945;44.472;-123.352;2023-03-22T00:28:35;98964.88;;;14.81;56.71
64551;BME280;50945;44.472;-123.352;2023-03-22T00:31:03;98943.63;;;14.76;53.40
64551;BME280;50945;44.472;-123.352;2023-03-22T00:33:30;98958.34;;;14.70;55.66
64551;BME280;50945;44.472;-123.352;2023-03-22T00:35:59;98953.09;;;14.69;55.64
64551;BME280;50945;44.472;-123.352;2023-03-22T00:38:27;98962.19;;;14.69;56.73
64551;BME280;50945;44.472;-123.352;2023-03-22T00:43:38;98947.34;;;14.70;56.66
64551;BME280;50945;44.472;-123.352;2023-03-22T00:46:04;98949.84;;;14.72;56.74
64551;BME280;50945;44.472;-123.352;2023-03-22T00:48:30;98944.09;;;14.73;49.46
64551;BME280;50945;44.472;-123.352;2023-03-22T00:50:57;98948.59;;;14.79;55.91
64551;BME280;50945;44.472;-123.352;2023-03-22T00:53:23;98948.94;;;14.83;56.18
64551;BME280;50945;44.472;-123.352;2023-03-22T00:55:53;98945.38;;;14.82;55.00
64551;BME280;50945;44.472;-123.352;2023-03-22T00:58:19;98940.94;;;14.81;55.87
64551;BME280;50945;44.472;-123.352;2023-03-22T01:00:49;98938.38;;;14.75;55.38
64551;BME280;50945;44.472;-123.352;2023-03-22T01:03:15;98948.16;;;14.71;55.30
64551;BME280;50945;44.472;-123.352;2023-03-22T01:05:44;98950.19;;;14.75;55.75
64551;BME280;50945;44.472;-123.352;2023-03-22T01:08:17;98934.28;;;14.77;55.45
64551;BME280;50945;44.472;-123.352;2023-03-22T01:10:43;98931.28;;;14.79;56.03
64551;BME280;50945;44.472;-123.352;2023-03-22T01:13:11;98941.22;;;14.80;56.03
64551;BME280;50945;44.472;-123.352;2023-03-22T01:15:37;98936.19;;;14.77;55.32
64551;BME280;50945;44.472;-123.352;2023-03-22T01:18:04;98937.50;;;14.74;55.98
64551;BME280;50945;44.472;-123.352;2023-03-22T01:20:30;98939.09;;;14.70;55.35
64551;BME280;50945;44.472;-123.352;2023-03-22T01:22:56;98927.88;;;14.60;46.96
64551;BME280;50945;44.472;-123.352;2023-03-22T01:25:22;98929.19;;;14.57;47.93
64551;BME280;50945;44.472;-123.352;2023-03-22T01:27:48;98937.09;;;14.54;50.61
64551;BME280;50945;44.472;-123.352;2023-03-22T01:30:14;98924.66;;;14.51;56.50
64551;BME280;50945;44.472;-123.352;2023-03-22T01:32:40;98929.00;;;14.47;56.51
64551;BME280;50945;44.472;-123.352;2023-03-22T01:35:07;98930.81;;;14.41;56.96
64551;BME280;50945;44.472;-123.352;2023-03-22T01:37:33;98929.78;;;14.31;49.15
64551;BME280;50945;44.472;-123.352;2023-03-22T01:39:59;98924.16;;;14.25;56.48
64551;BME280;50945;44.472;-123.352;2023-03-22T01:42:26;98938.97;;;14.24;55.87
64551;BME280;50945;44.472;-123.352;2023-03-22T01:47:44;98932.19;;;14.15;56.95
64551;BME280;50945;44.472;-123.352;2023-03-22T01:50:13;98933.19;;;14.09;56.35
64551;BME280;50945;44.472;-123.352;2023-03-22T01:52:40;98934.84;;;14.10;55.39
64551;BME280;50945;44.472;-123.352;2023-03-22T01:55:06;98937.69;;;14.15;55.62
64551;BME280;50945;44.472;-123.352;2023-03-22T01:57:34;98939.84;;;14.25;55.82
64551;BME280;50945;44.472;-123.352;2023-03-22T02:00:10;98939.09;;;14.30;55.10
64551;BME280;50945;44.472;-123.352;2023-03-22T02:02:42;98939.09;;;14.30;55.28
64551;BME280;50945;44.472;-123.352;2023-03-22T02:05:09;98938.03;;;14.31;54.83
64551;BME280;50945;44.472;-123.352;2023-03-22T02:07:38;98939.31;;;14.28;54.54
64551;BME280;50945;44.472;-123.352;2023-03-22T02:10:14;98938.69;;;14.09;54.92
64551;BME280;50945;44.472;-123.352;2023-03-22T02:15:46;98945.31;;;13.61;55.00
64551;BME280;50945;44.472;-123.352;2023-03-22T02:18:34;98949.94;;;13.37;50.51
64551;BME280;50945;44.472;-123.352;2023-03-22T02:23:56;98955.91;;;13.03;56.87
64551;BME280;50945;44.472;-123.352;2023-03-22T02:29:52;98948.66;;;12.67;53.02
64551;BME280;50945;44.472;-123.352;2023-03-22T02:37:46;98951.41;;;12.36;55.41
64551;BME280;50945;44.472;-123.352;2023-03-22T02:40:32;98951.09;;;12.26;56.65
64551;BME280;50945;44.472;-123.352;2023-03-22T02:43:24;98963.91;;;12.14;56.61
64551;BME280;50945;44.472;-123.352;2023-03-22T02:48:56;98963.88;;;11.95;56.64
64551;BME280;50945;44.472;-123.352;2023-03-22T02:51:57;98961.19;;;11.89;51.43
64551;BME280;50945;44.472;-123.352;2023-03-22T03:00:00;98971.91;;;11.72;57.33
64551;BME280;50945;44.472;-123.352;2023-03-22T03:02:28;98969.22;;;11.65;56.80
64551;BME280;50945;44.472;-123.352;2023-03-22T03:04:56;98976.22;;;11.61;56.72
64551;BME280;50945;44.472;-123.352;2023-03-22T03:07:26;98974.78;;;11.58;53.99
64551;BME280;50945;44.472;-123.352;2023-03-22T03:09:55;98980.91;;;11.54;57.31
64551;BME280;50945;44.472;-123.352;2023-03-22T03:12:26;98991.91;;;11.47;57.17
64551;BME280;50945;44.472;-123.352;2023-03-22T03:14:53;98990.31;;;11.39;57.35
64551;BME280;50945;44.472;-123.352;2023-03-22T03:17:40;98999.78;;;11.37;55.38
64551;BME280;50945;44.472;-123.352;2023-03-22T03:20:48;98997.94;;;11.31;55.65
64551;BME280;50945;44.472;-123.352;2023-03-22T03:28:45;99003.97;;;11.14;57.52
64551;BME280;50945;44.472;-123.352;2023-03-22T03:31:20;99011.31;;;11.14;58.06
64551;BME280;50945;44.472;-123.352;2023-03-22T03:34:03;99010.31;;;11.08;56.70
64551;BME280;50945;44.472;-123.352;2023-03-22T03:36:33;99007.38;;;11.03;57.19
64551;BME280;50945;44.472;-123.352;2023-03-22T03:39:06;99016.88;;;11.00;55.46
64551;BME280;50945;44.472;-123.352;2023-03-22T03:41:35;99028.47;;;10.96;57.90
64551;BME280;50945;44.472;-123.352;2023-03-22T03:44:03;99020.09;;;10.91;58.72
64551;BME280;50945;44.472;-123.352;2023-03-22T03:46:29;99025.81;;;10.82;58.30
64551;BME280;50945;44.472;-123.352;2023-03-22T03:48:56;99024.19;;;10.75;58.65
64551;BME280;50945;44.472;-123.352;2023-03-22T03:51:26;99030.09;;;10.72;57.81
64551;BME280;50945;44.472;-123.352;2023-03-22T03:53:53;99032.41;;;10.68;58.53
64551;BME280;50945;44.472;-123.352;2023-03-22T03:56:19;99026.97;;;10.68;58.57
64551;BME280;50945;44.472;-123.352;2023-03-22T03:58:45;99030.72;;;10.67;55.04
64551;BME280;50945;44.472;-123.352;2023-03-22T04:01:11;99035.59;;;10.65;58.36
64551;BME280;50945;44.472;-123.352;2023-03-22T04:03:38;99038.75;;;10.62;58.37
64551;BME280;50945;44.472;-123.352;2023-03-22T04:06:04;99036.47;;;10.59;58.66
64551;BME280;50945;44.472;-123.352;2023-03-22T04:08:30;99044.00;;;10.57;56.62
64551;BME280;50945;44.472;-123.352;2023-03-22T04:10:57;99053.06;;;10.57;58.29
64551;BME280;50945;44.472;-123.352;2023-03-22T04:13:23;99050.56;;;10.56;58.75
64551;BME280;50945;44.472;-123.352;2023-03-22T04:15:56;99052.88;;;10.52;58.33
64551;BME280;50945;44.472;-123.352;2023-03-22T04:18:22;99051.63;;;10.48;58.77
64551;BME280;50945;44.472;-123.352;2023-03-22T04:20:49;99056.66;;;10.44;59.32
64551;BME280;50945;44.472;-123.352;2023-03-22T04:23:18;99060.47;;;10.43;59.42
64551;BME280;50945;44.472;-123.352;2023-03-22T04:25:47;99062.59;;;10.41;59.42
64551;BME280;50945;44.472;-123.352;2023-03-22T04:28:15;99054.00;;;10.38;58.98
64551;BME280;50945;44.472;-123.352;2023-03-22T04:30:45;99059.03;;;10.34;59.13
64551;BME280;50945;44.472;-123.352;2023-03-22T04:33:15;99054.00;;;10.31;59.64
64551;BME280;50945;44.472;-123.352;2023-03-22T04:35:41;99063.41;;;10.28;59.81
64551;BME280;50945;44.472;-123.352;2023-03-22T04:38:11;99059.66;;;10.23;59.88
64551;BME280;50945;44.472;-123.352;2023-03-22T04:40:38;99069.94;;;10.21;59.82
64551;BME280;50945;44.472;-123.352;2023-03-22T04:43:11;99074.19;;;10.17;60.18
64551;BME280;50945;44.472;-123.352;2023-03-22T04:45:37;99072.69;;;10.14;60.41
64551;BME280;50945;44.472;-123.352;2023-03-22T04:48:04;99075.25;;;10.09;60.51
64551;BME280;50945;44.472;-123.352;2023-03-22T04:50:32;99080.72;;;10.02;60.52
64551;BME280;50945;44.472;-123.352;2023-03-22T04:59:42;99094.16;;;9.84;61.30
64551;BME280;50945;44.472;-123.352;2023-03-22T05:02:09;99086.81;;;9.78;61.00
64551;BME280;50945;44.472;-123.352;2023-03-22T05:04:35;99097.31;;;9.74;61.80
64551;BME280;50945;44.472;-123.352;2023-03-22T05:07:01;99098.56;;;9.71;61.55
64551;BME280;50945;44.472;-123.352;2023-03-22T05:09:31;99103.41;;;9.69;61.52
64551;BME280;50945;44.472;-123.352;2023-03-22T05:11:58;99106.56;;;9.66;61.43
64551;BME280;50945;44.472;-123.352;2023-03-22T05:14:24;99105.28;;;9.62;61.90
64551;BME280;50945;44.472;-123.352;2023-03-22T05:16:50;99109.91;;;9.62;62.04
64551;BME280;50945;44.472;-123.352;2023-03-22T05:19:16;99114.53;;;9.61;61.82
64551;BME280;50945;44.472;-123.352;2023-03-22T05:21:47;99124.16;;;9.57;62.18
64551;BME280;50945;44.472;-123.352;2023-03-22T05:24:13;99118.91;;;9.56;62.02
64551;BME280;50945;44.472;-123.352;2023-03-22T05:26:39;99120.19;;;9.53;61.63
64551;BME280;50945;44.472;-123.352;2023-03-22T05:29:09;99126.66;;;9.52;62.03
64551;BME280;50945;44.472;-123.352;2023-03-22T05:31:36;99126.03;;;9.50;62.45
64551;BME280;50945;44.472;-123.352;2023-03-22T05:34:03;99133.41;;;9.49;61.83
64551;BME280;50945;44.472;-123.352;2023-03-22T05:36:29;99137.59;;;9.45;62.29
64551;BME280;50945;44.472;-123.352;2023-03-22T05:38:56;99134.66;;;9.40;61.95
64551;BME280;50945;44.472;-123.352;2023-03-22T05:41:21;99135.25;;;9.36;61.72
64551;BME280;50945;44.472;-123.352;2023-03-22T05:43:48;99134.00;;;9.31;62.59
64551;BME280;50945;44.472;-123.352;2023-03-22T05:46:15;99140.91;;;9.27;62.94
64551;BME280;50945;44.472;-123.352;2023-03-22T05:48:42;99145.28;;;9.22;62.84
64551;BME280;50945;44.472;-123.352;2023-03-22T05:51:10;99140.66;;;9.16;63.49
64551;BME280;50945;44.472;-123.352;2023-03-22T05:53:46;99147.75;;;9.03;63.99
64551;BME280;50945;44.472;-123.352;2023-03-22T05:56:13;99153.56;;;8.93;64.50
64551;BME280;50945;44.472;-123.352;2023-03-22T05:58:41;99158.38;;;8.85;64.59
64551;BME280;50945;44.472;-123.352;2023-03-22T06:01:10;99157.91;;;8.74;64.65
64551;BME280;50945;44.472;-123.352;2023-03-22T06:03:37;99149.88;;;8.66;64.49
64551;BME280;50945;44.472;-123.352;2023-03-22T06:06:05;99157.19;;;8.59;64.73
64551;BME280;50945;44.472;-123.352;2023-03-22T06:08:38;99155.69;;;8.50;65.39
64551;BME280;50945;44.472;-123.352;2023-03-22T06:11:06;99149.78;;;8.46;65.14
64551;BME280;50945;44.472;-123.352;2023-03-22T06:13:33;99157.69;;;8.41;65.46
64551;BME280;50945;44.472;-123.352;2023-03-22T06:15:59;99156.22;;;8.38;65.56
64551;BME280;50945;44.472;-123.352;2023-03-22T06:18:27;99161.84;;;8.37;65.06
64551;BME280;50945;44.472;-123.352;2023-03-22T06:20:55;99155.31;;;8.31;65.16
64551;BME280;50945;44.472;-123.352;2023-03-22T06:23:21;99151.91;;;8.23;65.59
64551;BME280;50945;44.472;-123.352;2023-03-22T06:25:48;99147.44;;;8.15;65.74
64551;BME280;50945;44.472;-123.352;2023-03-22T06:28:14;99159.34;;;8.07;66.68
64551;BME280;50945;44.472;-123.352;2023-03-22T06:30:41;99160.34;;;7.99;66.94
64551;BME280;50945;44.472;-123.352;2023-03-22T06:33:07;99164.22;;;7.90;67.19
64551;BME280;50945;44.472;-123.352;2023-03-22T06:35:34;99162.47;;;7.83;67.28
64551;BME280;50945;44.472;-123.352;2023-03-22T06:38:01;99161.78;;;7.74;67.90
64551;BME280;50945;44.472;-123.352;2023-03-22T06:40:27;99161.06;;;7.65;67.83
64551;BME280;50945;44.472;-123.352;2023-03-22T06:42:53;99170.66;;;7.61;67.94
64551;BME280;50945;44.472;-123.352;2023-03-22T06:45:21;99166.66;;;7.57;68.78
64551;BME280;50945;44.472;-123.352;2023-03-22T06:47:47;99165.16;;;7.54;68.13
64551;BME280;50945;44.472;-123.352;2023-03-22T06:50:15;99170.78;;;7.53;68.67
64551;BME280;50945;44.472;-123.352;2023-03-22T06:52:41;99165.75;;;7.50;68.56
64551;BME280;50945;44.472;-123.352;2023-03-22T06:55:08;99170.50;;;7.48;68.65
64551;BME280;50945;44.472;-123.352;2023-03-22T06:57:34;99172.41;;;7.47;68.59
64551;BME280;50945;44.472;-123.352;2023-03-22T07:00:01;99174.09;;;7.48;68.88
64551;BME280;50945;44.472;-123.352;2023-03-22T07:02:27;99174.28;;;7.47;68.99
64551;BME280;50945;44.472;-123.352;2023-03-22T07:04:55;99180.09;;;7.43;69.55
64551;BME280;50945;44.472;-123.352;2023-03-22T07:07:21;99188.00;;;7.38;69.37
64551;BME280;50945;44.472;-123.352;2023-03-22T07:09:47;99179.38;;;7.35;69.12
64551;BME280;50945;44.472;-123.352;2023-03-22T07:12:14;99182.47;;;7.32;70.71
64551;BME280;50945;44.472;-123.352;2023-03-22T07:14:40;99178.28;;;7.29;69.52
64551;BME280;50945;44.472;-123.352;2023-03-22T07:17:07;99189.16;;;7.29;69.60
64551;BME280;50945;44.472;-123.352;2023-03-22T07:19:33;99192.06;;;7.28;69.56
64551;BME280;50945;44.472;-123.352;2023-03-22T07:21:59;99185.16;;;7.25;70.14
64551;BME280;50945;44.472;-123.352;2023-03-22T07:24:25;99189.06;;;7.22;69.65
64551;BME280;50945;44.472;-123.352;2023-03-22T07:26:53;99194.03;;;7.19;69.66
64551;BME280;50945;44.472;-123.352;2023-03-22T07:29:19;99195.47;;;7.15;70.44
64551;BME280;50945;44.472;-123.352;2023-03-22T07:31:46;99189.38;;;7.13;70.37
64551;BME280;50945;44.472;-123.352;2023-03-22T07:34:12;99193.13;;;7.12;70.48
64551;BME280;50945;44.472;-123.352;2023-03-22T07:36:38;99192.66;;;7.08;70.56
64551;BME280;50945;44.472;-123.352;2023-03-22T07:39:05;99192.84;;;7.07;70.38
64551;BME280;50945;44.472;-123.352;2023-03-22T07:41:31;99202.25;;;7.04;70.97
64551;BME280;50945;44.472;-123.352;2023-03-22T07:43:57;99197.19;;;7.01;70.65
64551;BME280;50945;44.472;-123.352;2023-03-22T07:46:25;99199.44;;;6.97;70.91
64551;BME280;50945;44.472;-123.352;2023-03-22T07:48:51;99197.72;;;6.96;70.85
64551;BME280;50945;44.472;-123.352;2023-03-22T07:51:17;99193.53;;;6.94;70.83
64551;BME280;50945;44.472;-123.352;2023-03-22T07:53:44;99198.50;;;6.90;71.54
64551;BME280;50945;44.472;-123.352;2023-03-22T07:56:10;99195.97;;;6.89;71.11
64551;BME280;50945;44.472;-123.352;2023-03-22T07:58:36;99199.94;;;6.86;71.41
64551;BME280;50945;44.472;-123.352;2023-03-22T08:01:04;99191.97;;;6.84;71.39
64551;BME280;50945;44.472;-123.352;2023-03-22T08:03:34;99200.28;;;6.83;72.08
64551;BME280;50945;44.472;-123.352;2023-03-22T08:06:02;99203.84;;;6.83;71.39
64551;BME280;50945;44.472;-123.352;2023-03-22T08:08:35;99200.28;;;6.83;71.57
64551;BME280;50945;44.472;-123.352;2023-03-22T08:11:03;99207.44;;;6.84;71.59
64551;BME280;50945;44.472;-123.352;2023-03-22T08:13:29;99209.09;;;6.85;71.27
64551;BME280;50945;44.472;-123.352;2023-03-22T08:15:55;99204.91;;;6.82;71.82
64551;BME280;50945;44.472;-123.352;2023-03-22T08:18:22;99208.16;;;6.78;72.42
64551;BME280;50945;44.472;-123.352;2023-03-22T08:20:55;99209.59;;;6.74;72.29
64551;BME280;50945;44.472;-123.352;2023-03-22T08:23:23;99211.84;;;6.70;71.49
64551;BME280;50945;44.472;-123.352;2023-03-22T08:25:50;99224.94;;;6.66;72.71
64551;BME280;50945;44.472;-123.352;2023-03-22T08:28:17;99216.16;;;6.64;72.19
64551;BME280;50945;44.472;-123.352;2023-03-22T08:30:45;99216.31;;;6.63;72.03
64551;BME280;50945;44.472;-123.352;2023-03-22T08:33:12;99219.88;;;6.63;72.44
64551;BME280;50945;44.472;-123.352;2023-03-22T08:35:39;99222.13;;;6.60;72.54
64551;BME280;50945;44.472;-123.352;2023-03-22T08:38:07;99229.63;;;6.58;72.86
64551;BME280;50945;44.472;-123.352;2023-03-22T08:40:33;99231.00;;;6.54;72.97
64551;BME280;50945;44.472;-123.352;2023-03-22T08:42:59;99231.56;;;6.49;73.03
64551;BME280;50945;44.472;-123.352;2023-03-22T08:45:27;99238.41;;;6.45;73.01
64551;BME280;50945;44.472;-123.352;2023-03-22T08:47:53;99238.97;;;6.40;73.13
64551;BME280;50945;44.472;-123.352;2023-03-22T08:50:19;99237.25;;;6.39;72.73
64551;BME280;50945;44.472;-123.352;2023-03-22T08:52:45;99248.13;;;6.39;72.72
64551;BME280;50945;44.472;-123.352;2023-03-22T08:55:12;99246.09;;;6.41;72.75
64551;BME280;50945;44.472;-123.352;2023-03-22T08:57:39;99247.75;;;6.42;72.98
64551;BME280;50945;44.472;-123.352;2023-03-22T09:00:05;99247.56;;;6.44;72.36
64551;BME280;50945;44.472;-123.352;2023-03-22T09:02:34;99251.78;;;6.46;72.73
64551;BME280;50945;44.472;-123.352;2023-03-22T09:05:01;99251.78;;;6.46;72.48
64551;BME280;50945;44.472;-123.352;2023-03-22T09:07:27;99254.31;;;6.48;72.68
64551;BME280;50945;44.472;-123.352;2023-03-22T09:09:53;99250.75;;;6.47;72.58
64551;BME280;50945;44.472;-123.352;2023-03-22T09:12:19;99250.56;;;6.49;73.10
64551;BME280;50945;44.472;-123.352;2023-03-22T09:14:46;99257.91;;;6.49;72.77
64551;BME280;50945;44.472;-123.352;2023-03-22T09:17:13;99260.13;;;6.45;72.90
64551;BME280;50945;44.472;-123.352;2023-03-22T09:19:40;99269.13;;;6.45;73.29
64551;BME280;50945;44.472;-123.352;2023-03-22T09:22:06;99264.69;;;6.44;73.26
64551;BME280;50945;44.472;-123.352;2023-03-22T09:24:33;99270.13;;;6.44;73.07
64551;BME280;50945;44.472;-123.352;2023-03-22T09:26:59;99270.53;;;6.41;72.90
64551;BME280;50945;44.472;-123.352;2023-03-22T09:29:25;99263.75;;;6.37;72.85
64551;BME280;50945;44.472;-123.352;2023-03-22T09:31:51;99268.03;;;6.32;73.38
64551;BME280;50945;44.472;-123.352;2023-03-22T09:34:18;99270.28;;;6.28;73.54
64551;BME280;50945;44.472;-123.352;2023-03-22T09:36:44;99275.91;;;6.26;74.34
64551;BME280;50945;44.472;-123.352;2023-03-22T09:39:10;99277.94;;;6.24;73.93
64551;BME280;50945;44.472;-123.352;2023-03-22T09:44:13;99267.53;;;6.13;73.90
64551;BME280;50945;44.472;-123.352;2023-03-22T09:46:44;99278.75;;;6.10;74.19
64551;BME280;50945;44.472;-123.352;2023-03-22T09:49:18;99278.28;;;6.06;74.16
64551;BME280;50945;44.472;-123.352;2023-03-22T09:51:50;99276.75;;;6.04;75.19
64551;BME280;50945;44.472;-123.352;2023-03-22T09:54:32;99278.63;;;6.03;74.94
64551;BME280;50945;44.472;-123.352;2023-03-22T09:57:37;99277.78;;;6.03;75.72
64551;BME280;50945;44.472;-123.352;2023-03-22T10:00:49;99275.75;;;6.05;75.29
64551;BME280;50945;44.472;-123.352;2023-03-22T10:05:56;99276.97;;;6.02;74.61
64551;BME280;50945;44.472;-123.352;2023-03-22T10:16:42;99279.38;;;5.89;76.59
64551;BME280;50945;44.472;-123.352;2023-03-22T10:19:24;99285.00;;;5.87;75.89
64551;BME280;50945;44.472;-123.352;2023-03-22T10:21:54;99289.75;;;5.85;75.33
64551;BME280;50945;44.472;-123.352;2023-03-22T10:24:27;99288.06;;;5.84;75.74
64551;BME280;50945;44.472;-123.352;2023-03-22T10:26:55;99295.53;;;5.82;75.74
64551;BME280;50945;44.472;-123.352;2023-03-22T10:29:39;99295.78;;;5.72;76.07
64551;BME280;50945;44.472;-123.352;2023-03-22T10:34:40;99292.91;;;5.34;76.11
64551;BME280;50945;44.472;-123.352;2023-03-22T10:37:26;99298.75;;;5.23;76.87
64551;BME280;50945;44.472;-123.352;2023-03-22T10:39:58;99304.00;;;5.25;77.30
64551;BME280;50945;44.472;-123.352;2023-03-22T10:42:28;99297.84;;;5.31;77.99
64551;BME280;50945;44.472;-123.352;2023-03-22T10:45:22;99299.03;;;5.37;78.18
64551;BME280;50945;44.472;-123.352;2023-03-22T10:48:03;99308.50;;;5.41;77.12
64551;BME280;50945;44.472;-123.352;2023-03-22T10:50:38;99301.34;;;5.48;77.05
64551;BME280;50945;44.472;-123.352;2023-03-22T10:55:55;99300.22;;;5.65;77.09
64551;BME280;50945;44.472;-123.352;2023-03-22T10:58:25;99303.91;;;5.72;77.77
64551;BME280;50945;44.472;-123.352;2023-03-22T11:00:57;99312.38;;;5.78;77.31
64551;BME280;50945;44.472;-123.352;2023-03-22T11:06:05;99309.16;;;5.74;76.68
64551;BME280;50945;44.472;-123.352;2023-03-22T11:08:52;99310.53;;;5.70;77.84
64551;BME280;50945;44.472;-123.352;2023-03-22T11:11:27;99308.69;;;5.70;76.92
64551;BME280;50945;44.472;-123.352;2023-03-22T11:13:57;99312.22;;;5.71;76.95
64551;BME280;50945;44.472;-123.352;2023-03-22T11:16:24;99316.81;;;5.70;79.95
64551;BME280;50945;44.472;-123.352;2023-03-22T11:18:51;99320.38;;;5.71;77.62
64551;BME280;50945;44.472;-123.352;2023-03-22T11:21:18;99326.97;;;5.68;77.57
64551;BME280;50945;44.472;-123.352;2023-03-22T11:23:54;99327.69;;;5.62;77.61
64551;BME280;50945;44.472;-123.352;2023-03-22T11:26:30;99331.78;;;5.58;78.11
64551;BME280;50945;44.472;-123.352;2023-03-22T11:29:19;99336.34;;;5.58;80.08
64551;BME280;50945;44.472;-123.352;2023-03-22T11:31:55;99338.88;;;5.59;77.79
64551;BME280;50945;44.472;-123.352;2023-03-22T11:34:25;99341.44;;;5.61;78.01
64551;BME280;50945;44.472;-123.352;2023-03-22T11:36:52;99343.97;;;5.62;77.52
64551;BME280;50945;44.472;-123.352;2023-03-22T11:39:26;99343.13;;;5.62;77.63
64551;BME280;50945;44.472;-123.352;2023-03-22T11:42:01;99337.72;;;5.62;78.18
64551;BME280;50945;44.472;-123.352;2023-03-22T11:44:33;99341.44;;;5.61;77.73
64551;BME280;50945;44.472;-123.352;2023-03-22T11:47:02;99338.88;;;5.59;77.81
64551;BME280;50945;44.472;-123.352;2023-03-22T11:49:47;99340.94;;;5.57;78.41
64551;BME280;50945;44.472;-123.352;2023-03-22T11:52:21;99341.28;;;5.54;78.61
64551;BME280;50945;44.472;-123.352;2023-03-22T11:54:48;99347.25;;;5.49;78.31
64551;BME280;50945;44.472;-123.352;2023-03-22T11:57:19;99350.97;;;5.48;78.56
64551;BME280;50945;44.472;-123.352;2023-03-22T12:02:56;99341.84;;;5.41;79.64
64551;BME280;50945;44.472;-123.352;2023-03-22T12:05:36;99348.00;;;5.35;78.43
64551;BME280;50945;44.472;-123.352;2023-03-22T12:10:41;99355.47;;;5.25;79.19
64551;BME280;50945;44.472;-123.352;2023-03-22T12:13:16;99358.69;;;5.20;79.14
64551;BME280;50945;44.472;-123.352;2023-03-22T12:15:49;99366.16;;;5.18;79.10
64551;BME280;50945;44.472;-123.352;2023-03-22T12:18:40;99365.31;;;5.18;80.22
64551;BME280;50945;44.472;-123.352;2023-03-22T12:21:10;99363.44;;;5.18;79.25
64551;BME280;50945;44.472;-123.352;2023-03-22T12:23:36;99359.91;;;5.18;80.35
64551;BME280;50945;44.472;-123.352;2023-03-22T12:26:18;99361.28;;;5.13;80.56
64551;BME280;50945;44.472;-123.352;2023-03-22T12:29:03;99357.59;;;5.06;81.57
64551;BME280;50945;44.472;-123.352;2023-03-22T12:31:42;99363.19;;;4.97;81.04
64551;BME280;50945;44.472;-123.352;2023-03-22T12:34:18;99374.34;;;4.93;81.23
64551;BME280;50945;44.472;-123.352;2023-03-22T12:36:56;99374.72;;;4.90;81.18
64551;BME280;50945;44.472;-123.352;2023-03-22T12:39:26;99373.84;;;4.90;80.53
64551;BME280;50945;44.472;-123.352;2023-03-22T12:41:59;99376.22;;;4.85;81.88
64551;BME280;50945;44.472;-123.352;2023-03-22T12:44:35;99372.34;;;4.79;81.27
64551;BME280;50945;44.472;-123.352;2023-03-22T12:47:17;99377.09;;;4.77;82.41
64551;BME280;50945;44.472;-123.352;2023-03-22T12:52:40;99386.59;;;4.73;81.37
64551;BME280;50945;44.472;-123.352;2023-03-22T12:55:19;99387.59;;;4.72;81.96
64551;BME280;50945;44.472;-123.352;2023-03-22T12:57:46;99380.50;;;4.71;81.53
64551;BME280;50945;44.472;-123.352;2023-03-22T13:00:18;99385.91;;;4.71;81.99
64551;BME280;50945;44.472;-123.352;2023-03-22T13:02:57;99392.00;;;4.73;82.99
64551;BME280;50945;44.472;-123.352;2023-03-22T13:05:27;99388.91;;;4.76;83.47
64551;BME280;50945;44.472;-123.352;2023-03-22T13:07:55;99394.00;;;4.79;81.89
64551;BME280;50945;44.472;-123.352;2023-03-22T13:13:32;99405.38;;;4.74;83.01
64551;BME280;50945;44.472;-123.352;2023-03-22T13:16:02;99403.31;;;4.68;81.85
64551;BME280;50945;44.472;-123.352;2023-03-22T13:21:22;99420.09;;;4.55;81.95
64551;BME280;50945;44.472;-123.352;2023-03-22T13:26:36;99421.41;;;4.35;82.16
64551;BME280;50945;44.472;-123.352;2023-03-22T13:29:15;99424.63;;;4.30;81.98
64551;BME280;50945;44.472;-123.352;2023-03-22T13:31:47;99431.38;;;4.18;82.56
64551;BME280;50945;44.472;-123.352;2023-03-22T13:34:28;99437.06;;;4.07;82.68
64551;BME280;50945;44.472;-123.352;2023-03-22T13:36:59;99433.53;;;3.98;83.03
64551;BME280;50945;44.472;-123.352;2023-03-22T13:39:32;99437.53;;;3.86;83.30
64551;BME280;50945;44.472;-123.352;2023-03-22T13:42:07;99443.91;;;3.68;83.26
64551;BME280;50945;44.472;-123.352;2023-03-22T13:44:39;99434.84;;;3.51;83.25
64551;BME280;50945;44.472;-123.352;2023-03-22T13:47:44;99440.34;;;3.33;84.46
64551;BME280;50945;44.472;-123.352;2023-03-22T13:50:30;99448.03;;;3.20;84.78
64551;BME280;50945;44.472;-123.352;2023-03-22T13:53:02;99451.63;;;3.02;84.87
64551;BME280;50945;44.472;-123.352;2023-03-22T13:55:46;99455.44;;;2.92;85.37
64551;BME280;50945;44.472;-123.352;2023-03-22T14:00:54;99460.94;;;2.82;86.50
64551;BME280;50945;44.472;-123.352;2023-03-22T14:03:35;99461.06;;;2.80;87.00
64551;BME280;50945;44.472;-123.352;2023-03-22T14:06:15;99474.41;;;2.82;87.05
64551;BME280;50945;44.472;-123.352;2023-03-22T14:08:46;99472.75;;;2.81;86.70
64551;BME280;50945;44.472;-123.352;2023-03-22T14:11:35;99481.97;;;2.78;87.45
64551;BME280;50945;44.472;-123.352;2023-03-22T14:14:13;99487.38;;;2.78;87.40